sensor_id;sensor_type;location;lat;lon;timestamp;P1;durP1;ratioP1;P2;durP2;ratioP2
71655;SDS011;59497;48.798;8.816;2023-06-14T00:01:35;4.20;;;3.10;;
71655;SDS011;59497;48.798;8.816;2023-06-14T00:04:00;3.80;;;2.97;;
71655;SDS011;59497;48.798;8.816;2023-06-14T00:06:29;4.07;;;3.25;;
71655;SDS011;59497;48.798;8.816;2023-06-14T00:08:55;4.53;;;3.50;;
71655;SDS011;59497;48.798;8.816;2023-06-14T00:11:20;5.77;;;3.47;;
71655;SDS011;59497;48.798;8.816;2023-06-14T00:13:46;5.63;;;3.77;;
71655;SDS011;59497;48.798;8.816;2023-06-14T00:16:11;4.77;;;2.83;;
71655;SDS011;59497;48.798;8.816;2023-06-14T00:18:36;4.80;;;3.63;;
71655;SDS011;59497;48.798;8.816;2023-06-14T00:21:03;5.03;;;3.33;;
71655;SDS011;59497;48.798;8.816;2023-06-14T00:23:29;5.60;;;3.42;;
71655;SDS011;59497;48.798;8.816;2023-06-14T00:25:54;4.10;;;3.17;;
71655;SDS011;59497;48.798;8.816;2023-06-14T00:28:19;5.07;;;3.40;;
71655;SDS011;59497;48.798;8.816;2023-06-14T00:30:45;5.50;;;3.28;;
71655;SDS011;59497;48.798;8.816;2023-06-14T00:33:11;5.55;;;2.72;;
71655;SDS011;59497;48.798;8.816;2023-06-14T00:35:36;8.37;;;3.33;;
71655;SDS011;59497;48.798;8.816;2023-06-14T00:38:02;4.77;;;3.13;;
71655;SDS011;59497;48.798;8.816;2023-06-14T00:40:27;5.77;;;2.90;;
71655;SDS011;59497;48.798;8.816;2023-06-14T00:42:52;5.33;;;3.77;;
71655;SDS011;59497;48.798;8.816;2023-06-14T00:45:17;7.60;;;2.87;;
71655;SDS011;59497;48.798;8.816;2023-06-14T00:47:43;5.30;;;3.10;;
71655;SDS011;59497;48.798;8.816;2023-06-14T00:50:08;5.38;;;3.35;;
71655;SDS011;59497;48.798;8.816;2023-06-14T00:52:34;5.70;;;3.10;;
71655;SDS011;59497;48.798;8.816;2023-06-14T00:54:59;7.33;;;3.40;;
71655;SDS011;59497;48.798;8.816;2023-06-14T00:57:25;5.53;;;3.00;;
71655;SDS011;59497;48.798;8.816;2023-06-14T00:59:51;5.23;;;3.27;;
71655;SDS011;59497;48.798;8.816;2023-06-14T01:02:16;3.78;;;3.10;;
71655;SDS011;59497;48.798;8.816;2023-06-14T01:04:43;5.30;;;3.17;;
71655;SDS011;59497;48.798;8.816;2023-06-14T01:12:22;4.40;;;2.93;;
71655;SDS011;59497;48.798;8.816;2023-06-14T01:14:48;6.25;;;2.80;;
71655;SDS011;59497;48.798;8.816;2023-06-14T01:17:15;4.45;;;3.03;;
71655;SDS011;59497;48.798;8.816;2023-06-14T01:19:42;5.87;;;3.10;;
71655;SDS011;59497;48.798;8.816;2023-06-14T01:22:07;4.63;;;2.65;;
71655;SDS011;59497;48.798;8.816;2023-06-14T01:24:33;4.47;;;3.00;;
71655;SDS011;59497;48.798;8.816;2023-06-14T01:26:59;6.10;;;3.40;;
71655;SDS011;59497;48.798;8.816;2023-06-14T01:29:25;5.07;;;3.30;;
71655;SDS011;59497;48.798;8.816;2023-06-14T01:31:53;4.70;;;3.10;;
71655;SDS011;59497;48.798;8.816;2023-06-14T01:34:18;4.78;;;3.65;;
71655;SDS011;59497;48.798;8.816;2023-06-14T01:36:43;4.70;;;3.07;;
71655;SDS011;59497;48.798;8.816;2023-06-14T01:39:10;4.55;;;3.28;;
71655;SDS011;59497;48.798;8.816;2023-06-14T01:41:37;5.50;;;2.95;;
71655;SDS011;59497;48.798;8.816;2023-06-14T01:44:02;4.13;;;3.03;;
71655;SDS011;59497;48.798;8.816;2023-06-14T01:46:28;5.20;;;3.23;;
71655;SDS011;59497;48.798;8.816;2023-06-14T01:48:53;5.43;;;3.43;;
71655;SDS011;59497;48.798;8.816;2023-06-14T01:51:18;4.30;;;3.50;;
71655;SDS011;59497;48.798;8.816;2023-06-14T01:53:44;4.40;;;3.17;;
71655;SDS011;59497;48.798;8.816;2023-06-14T01:56:09;4.97;;;3.30;;
71655;SDS011;59497;48.798;8.816;2023-06-14T01:58:34;5.17;;;3.40;;
71655;SDS011;59497;48.798;8.816;2023-06-14T02:01:00;5.38;;;3.78;;
71655;SDS011;59497;48.798;8.816;2023-06-14T02:03:25;4.73;;;3.27;;
71655;SDS011;59497;48.798;8.816;2023-06-14T02:05:50;4.37;;;3.50;;
71655;SDS011;59497;48.798;8.816;2023-06-14T02:08:16;6.03;;;3.47;;
71655;SDS011;59497;48.798;8.816;2023-06-14T02:10:41;5.40;;;3.50;;
71655;SDS011;59497;48.798;8.816;2023-06-14T02:13:06;4.40;;;3.33;;
71655;SDS011;59497;48.798;8.816;2023-06-14T02:15:31;4.10;;;3.43;;
71655;SDS011;59497;48.798;8.816;2023-06-14T02:17:59;4.65;;;3.38;;
71655;SDS011;59497;48.798;8.816;2023-06-14T02:20:25;5.38;;;3.78;;
71655;SDS011;59497;48.798;8.816;2023-06-14T02:22:50;4.90;;;4.03;;
71655;SDS011;59497;48.798;8.816;2023-06-14T02:25:15;3.97;;;3.53;;
71655;SDS011;59497;48.798;8.816;2023-06-14T02:27:40;5.53;;;3.30;;
71655;SDS011;59497;48.798;8.816;2023-06-14T02:30:06;4.67;;;3.50;;
71655;SDS011;59497;48.798;8.816;2023-06-14T02:32:31;5.30;;;3.40;;
71655;SDS011;59497;48.798;8.816;2023-06-14T02:34:56;3.88;;;3.30;;
71655;SDS011;59497;48.798;8.816;2023-06-14T02:37:22;4.40;;;3.20;;
71655;SDS011;59497;48.798;8.816;2023-06-14T02:39:47;4.90;;;3.23;;
71655;SDS011;59497;48.798;8.816;2023-06-14T02:42:13;5.97;;;3.20;;
71655;SDS011;59497;48.798;8.816;2023-06-14T02:44:38;4.83;;;3.10;;
71655;SDS011;59497;48.798;8.816;2023-06-14T02:47:03;5.00;;;3.47;;
71655;SDS011;59497;48.798;8.816;2023-06-14T02:49:30;5.07;;;3.40;;
71655;SDS011;59497;48.798;8.816;2023-06-14T02:51:55;4.03;;;3.20;;
71655;SDS011;59497;48.798;8.816;2023-06-14T02:54:21;5.20;;;3.13;;
71655;SDS011;59497;48.798;8.816;2023-06-14T02:56:46;5.10;;;3.20;;
71655;SDS011;59497;48.798;8.816;2023-06-14T02:59:11;6.87;;;3.03;;
71655;SDS011;59497;48.798;8.816;2023-06-14T03:01:38;4.25;;;3.47;;
71655;SDS011;59497;48.798;8.816;2023-06-14T03:04:06;4.70;;;3.10;;
71655;SDS011;59497;48.798;8.816;2023-06-14T03:06:31;3.85;;;3.28;;
71655;SDS011;59497;48.798;8.816;2023-06-14T03:08:57;5.87;;;3.63;;
71655;SDS011;59497;48.798;8.816;2023-06-14T03:11:26;5.45;;;3.42;;
71655;SDS011;59497;48.798;8.816;2023-06-14T03:13:51;4.70;;;3.53;;
71655;SDS011;59497;48.798;8.816;2023-06-14T03:16:17;6.30;;;4.00;;
71655;SDS011;59497;48.798;8.816;2023-06-14T03:18:44;5.93;;;3.40;;
71655;SDS011;59497;48.798;8.816;2023-06-14T03:21:10;6.93;;;4.03;;
71655;SDS011;59497;48.798;8.816;2023-06-14T03:23:35;5.60;;;3.83;;
71655;SDS011;59497;48.798;8.816;2023-06-14T03:26:01;4.63;;;3.67;;
71655;SDS011;59497;48.798;8.816;2023-06-14T03:28:26;5.00;;;3.97;;
71655;SDS011;59497;48.798;8.816;2023-06-14T03:30:51;8.83;;;4.70;;
71655;SDS011;59497;48.798;8.816;2023-06-14T03:33:16;6.07;;;3.27;;
71655;SDS011;59497;48.798;8.816;2023-06-14T03:35:41;6.20;;;3.50;;
71655;SDS011;59497;48.798;8.816;2023-06-14T03:38:07;6.63;;;3.77;;
71655;SDS011;59497;48.798;8.816;2023-06-14T03:40:32;5.93;;;3.60;;
71655;SDS011;59497;48.798;8.816;2023-06-14T03:42:57;6.40;;;3.80;;
71655;SDS011;59497;48.798;8.816;2023-06-14T03:45:22;4.83;;;3.30;;
71655;SDS011;59497;48.798;8.816;2023-06-14T03:47:48;5.07;;;3.50;;
71655;SDS011;59497;48.798;8.816;2023-06-14T03:50:13;5.60;;;3.70;;
71655;SDS011;59497;48.798;8.816;2023-06-14T03:52:38;4.03;;;3.27;;
71655;SDS011;59497;48.798;8.816;2023-06-14T03:55:04;8.55;;;3.90;;
71655;SDS011;59497;48.798;8.816;2023-06-14T03:57:29;4.97;;;3.43;;
71655;SDS011;59497;48.798;8.816;2023-06-14T03:59:54;5.47;;;3.57;;
71655;SDS011;59497;48.798;8.816;2023-06-14T04:02:20;5.33;;;3.80;;
71655;SDS011;59497;48.798;8.816;2023-06-14T04:04:45;7.47;;;4.10;;
71655;SDS011;59497;48.798;8.816;2023-06-14T04:07:13;7.17;;;4.10;;
71655;SDS011;59497;48.798;8.816;2023-06-14T04:09:39;5.95;;;3.65;;
71655;SDS011;59497;48.798;8.816;2023-06-14T04:12:05;6.13;;;4.17;;
71655;SDS011;59497;48.798;8.816;2023-06-14T04:14:30;5.72;;;3.80;;
71655;SDS011;59497;48.798;8.816;2023-06-14T04:16:57;5.55;;;3.55;;
71655;SDS011;59497;48.798;8.816;2023-06-14T04:19:23;5.33;;;3.90;;
71655;SDS011;59497;48.798;8.816;2023-06-14T04:21:48;5.07;;;3.67;;
71655;SDS011;59497;48.798;8.816;2023-06-14T04:24:13;5.60;;;3.63;;
71655;SDS011;59497;48.798;8.816;2023-06-14T04:26:42;4.97;;;3.63;;
71655;SDS011;59497;48.798;8.816;2023-06-14T04:29:12;5.85;;;3.33;;
71655;SDS011;59497;48.798;8.816;2023-06-14T04:31:42;5.33;;;3.77;;
71655;SDS011;59497;48.798;8.816;2023-06-14T04:34:08;5.40;;;3.92;;
71655;SDS011;59497;48.798;8.816;2023-06-14T04:36:33;4.80;;;3.50;;
71655;SDS011;59497;48.798;8.816;2023-06-14T04:39:19;5.03;;;3.72;;
71655;SDS011;59497;48.798;8.816;2023-06-14T04:41:45;5.40;;;4.00;;
71655;SDS011;59497;48.798;8.816;2023-06-14T04:44:11;4.78;;;3.80;;
71655;SDS011;59497;48.798;8.816;2023-06-14T04:46:37;4.95;;;3.40;;
71655;SDS011;59497;48.798;8.816;2023-06-14T04:49:10;5.23;;;3.30;;
71655;SDS011;59497;48.798;8.816;2023-06-14T04:51:40;4.97;;;3.80;;
71655;SDS011;59497;48.798;8.816;2023-06-14T04:54:06;4.15;;;3.75;;
71655;SDS011;59497;48.798;8.816;2023-06-14T04:56:35;5.20;;;4.00;;
71655;SDS011;59497;48.798;8.816;2023-06-14T04:59:02;5.88;;;4.30;;
71655;SDS011;59497;48.798;8.816;2023-06-14T05:01:29;5.00;;;4.10;;
71655;SDS011;59497;48.798;8.816;2023-06-14T05:03:54;5.27;;;4.13;;
71655;SDS011;59497;48.798;8.816;2023-06-14T05:06:19;5.87;;;4.13;;
71655;SDS011;59497;48.798;8.816;2023-06-14T05:08:45;5.50;;;4.10;;
71655;SDS011;59497;48.798;8.816;2023-06-14T05:11:10;6.27;;;4.93;;
71655;SDS011;59497;48.798;8.816;2023-06-14T05:13:35;6.20;;;4.30;;
71655;SDS011;59497;48.798;8.816;2023-06-14T05:16:00;5.10;;;3.70;;
71655;SDS011;59497;48.798;8.816;2023-06-14T05:18:26;4.93;;;3.90;;
71655;SDS011;59497;48.798;8.816;2023-06-14T05:20:51;5.33;;;4.20;;
71655;SDS011;59497;48.798;8.816;2023-06-14T05:23:16;4.83;;;3.90;;
71655;SDS011;59497;48.798;8.816;2023-06-14T05:25:45;5.00;;;4.20;;
71655;SDS011;59497;48.798;8.816;2023-06-14T05:28:10;7.20;;;4.13;;
71655;SDS011;59497;48.798;8.816;2023-06-14T05:30:37;4.47;;;3.70;;
71655;SDS011;59497;48.798;8.816;2023-06-14T05:33:02;5.85;;;4.10;;
71655;SDS011;59497;48.798;8.816;2023-06-14T05:35:28;7.35;;;4.53;;
71655;SDS011;59497;48.798;8.816;2023-06-14T05:37:54;4.77;;;4.30;;
71655;SDS011;59497;48.798;8.816;2023-06-14T05:40:19;4.67;;;4.17;;
71655;SDS011;59497;48.798;8.816;2023-06-14T05:42:44;4.97;;;4.43;;
71655;SDS011;59497;48.798;8.816;2023-06-14T05:45:09;5.07;;;4.23;;
71655;SDS011;59497;48.798;8.816;2023-06-14T05:47:35;5.07;;;4.23;;
71655;SDS011;59497;48.798;8.816;2023-06-14T05:50:00;4.30;;;3.87;;
71655;SDS011;59497;48.798;8.816;2023-06-14T05:52:25;5.63;;;3.80;;
71655;SDS011;59497;48.798;8.816;2023-06-14T05:54:51;5.47;;;4.43;;
71655;SDS011;59497;48.798;8.816;2023-06-14T05:57:16;4.30;;;3.60;;
71655;SDS011;59497;48.798;8.816;2023-06-14T05:59:41;4.75;;;4.00;;
71655;SDS011;59497;48.798;8.816;2023-06-14T06:02:07;4.70;;;3.60;;
71655;SDS011;59497;48.798;8.816;2023-06-14T06:04:32;5.53;;;3.80;;
71655;SDS011;59497;48.798;8.816;2023-06-14T06:06:57;6.90;;;3.97;;
71655;SDS011;59497;48.798;8.816;2023-06-14T06:09:22;5.77;;;4.57;;
71655;SDS011;59497;48.798;8.816;2023-06-14T06:11:48;7.53;;;4.60;;
71655;SDS011;59497;48.798;8.816;2023-06-14T06:14:13;6.93;;;4.90;;
71655;SDS011;59497;48.798;8.816;2023-06-14T06:16:38;6.63;;;4.77;;
71655;SDS011;59497;48.798;8.816;2023-06-14T06:19:03;6.17;;;4.53;;
71655;SDS011;59497;48.798;8.816;2023-06-14T06:21:28;6.00;;;4.40;;
71655;SDS011;59497;48.798;8.816;2023-06-14T06:23:53;6.53;;;4.40;;
71655;SDS011;59497;48.798;8.816;2023-06-14T06:26:21;5.25;;;4.43;;
71655;SDS011;59497;48.798;8.816;2023-06-14T06:28:46;5.30;;;4.80;;
71655;SDS011;59497;48.798;8.816;2023-06-14T06:31:11;5.17;;;4.43;;
71655;SDS011;59497;48.798;8.816;2023-06-14T06:33:37;7.33;;;4.70;;
71655;SDS011;59497;48.798;8.816;2023-06-14T06:36:04;6.07;;;4.93;;
71655;SDS011;59497;48.798;8.816;2023-06-14T06:38:29;7.03;;;4.45;;
71655;SDS011;59497;48.798;8.816;2023-06-14T06:40:55;6.13;;;4.47;;
71655;SDS011;59497;48.798;8.816;2023-06-14T06:43:21;5.20;;;4.70;;
71655;SDS011;59497;48.798;8.816;2023-06-14T06:45:46;6.77;;;5.10;;
71655;SDS011;59497;48.798;8.816;2023-06-14T06:48:11;5.50;;;4.97;;
71655;SDS011;59497;48.798;8.816;2023-06-14T06:50:37;8.13;;;4.47;;
71655;SDS011;59497;48.798;8.816;2023-06-14T06:53:02;5.70;;;4.60;;
71655;SDS011;59497;48.798;8.816;2023-06-14T06:55:27;5.20;;;4.30;;
71655;SDS011;59497;48.798;8.816;2023-06-14T06:57:52;5.13;;;4.40;;
71655;SDS011;59497;48.798;8.816;2023-06-14T07:00:18;6.20;;;4.43;;
71655;SDS011;59497;48.798;8.816;2023-06-14T07:02:44;5.67;;;4.20;;
71655;SDS011;59497;48.798;8.816;2023-06-14T07:05:09;5.77;;;4.80;;
71655;SDS011;59497;48.798;8.816;2023-06-14T07:07:35;5.20;;;4.60;;
71655;SDS011;59497;48.798;8.816;2023-06-14T07:10:00;5.13;;;4.60;;
71655;SDS011;59497;48.798;8.816;2023-06-14T07:12:26;7.68;;;5.18;;
71655;SDS011;59497;48.798;8.816;2023-06-14T07:14:52;6.20;;;4.13;;
71655;SDS011;59497;48.798;8.816;2023-06-14T07:17:17;6.00;;;4.20;;
71655;SDS011;59497;48.798;8.816;2023-06-14T07:19:42;6.97;;;4.63;;
71655;SDS011;59497;48.798;8.816;2023-06-14T07:22:07;5.37;;;4.70;;
71655;SDS011;59497;48.798;8.816;2023-06-14T07:24:32;4.97;;;4.30;;
71655;SDS011;59497;48.798;8.816;2023-06-14T07:26:59;5.53;;;4.60;;
71655;SDS011;59497;48.798;8.816;2023-06-14T07:29:25;5.53;;;4.30;;
71655;SDS011;59497;48.798;8.816;2023-06-14T07:31:51;4.55;;;4.15;;
71655;SDS011;59497;48.798;8.816;2023-06-14T07:34:16;4.53;;;4.13;;
71655;SDS011;59497;48.798;8.816;2023-06-14T07:36:42;6.07;;;4.50;;
71655;SDS011;59497;48.798;8.816;2023-06-14T07:39:09;6.38;;;4.65;;
71655;SDS011;59497;48.798;8.816;2023-06-14T07:41:35;5.30;;;4.40;;
71655;SDS011;59497;48.798;8.816;2023-06-14T07:44:00;4.70;;;4.25;;
71655;SDS011;59497;48.798;8.816;2023-06-14T07:46:25;5.20;;;4.70;;
71655;SDS011;59497;48.798;8.816;2023-06-14T07:48:50;5.27;;;4.77;;
71655;SDS011;59497;48.798;8.816;2023-06-14T07:51:16;5.20;;;3.90;;
71655;SDS011;59497;48.798;8.816;2023-06-14T07:53:41;5.40;;;3.90;;
71655;SDS011;59497;48.798;8.816;2023-06-14T07:56:07;4.63;;;4.03;;
71655;SDS011;59497;48.798;8.816;2023-06-14T07:58:32;6.03;;;4.10;;
71655;SDS011;59497;48.798;8.816;2023-06-14T08:00:57;5.30;;;3.83;;
71655;SDS011;59497;48.798;8.816;2023-06-14T08:03:22;6.10;;;4.20;;
71655;SDS011;59497;48.798;8.816;2023-06-14T08:05:48;4.57;;;4.07;;
71655;SDS011;59497;48.798;8.816;2023-06-14T08:08:14;5.73;;;4.07;;
71655;SDS011;59497;48.798;8.816;2023-06-14T08:10:39;5.23;;;4.50;;
71655;SDS011;59497;48.798;8.816;2023-06-14T08:13:04;5.23;;;4.40;;
71655;SDS011;59497;48.798;8.816;2023-06-14T08:15:29;5.23;;;4.73;;
71655;SDS011;59497;48.798;8.816;2023-06-14T08:17:54;6.33;;;4.70;;
71655;SDS011;59497;48.798;8.816;2023-06-14T08:20:20;4.90;;;4.40;;
71655;SDS011;59497;48.798;8.816;2023-06-14T08:22:45;5.37;;;4.60;;
71655;SDS011;59497;48.798;8.816;2023-06-14T08:25:13;4.85;;;4.35;;
71655;SDS011;59497;48.798;8.816;2023-06-14T08:27:38;5.80;;;4.40;;
71655;SDS011;59497;48.798;8.816;2023-06-14T08:30:03;6.30;;;4.73;;
71655;SDS011;59497;48.798;8.816;2023-06-14T08:32:29;7.13;;;5.13;;
71655;SDS011;59497;48.798;8.816;2023-06-14T08:34:54;12.40;;;4.93;;
71655;SDS011;59497;48.798;8.816;2023-06-14T08:37:19;7.43;;;4.53;;
71655;SDS011;59497;48.798;8.816;2023-06-14T08:39:45;4.80;;;4.17;;
71655;SDS011;59497;48.798;8.816;2023-06-14T08:42:10;5.57;;;3.97;;
71655;SDS011;59497;48.798;8.816;2023-06-14T08:44:37;6.82;;;4.55;;
71655;SDS011;59497;48.798;8.816;2023-06-14T08:47:02;4.90;;;4.50;;
71655;SDS011;59497;48.798;8.816;2023-06-14T08:49:31;6.90;;;5.10;;
71655;SDS011;59497;48.798;8.816;2023-06-14T08:51:57;6.53;;;4.25;;
71655;SDS011;59497;48.798;8.816;2023-06-14T08:54:23;7.03;;;4.40;;
71655;SDS011;59497;48.798;8.816;2023-06-14T08:56:52;5.07;;;4.57;;
71655;SDS011;59497;48.798;8.816;2023-06-14T08:59:18;5.03;;;4.53;;
71655;SDS011;59497;48.798;8.816;2023-06-14T09:01:43;5.70;;;4.90;;
71655;SDS011;59497;48.798;8.816;2023-06-14T09:06:44;5.73;;;5.07;;
71655;SDS011;59497;48.798;8.816;2023-06-14T09:09:10;5.57;;;4.65;;
71655;SDS011;59497;48.798;8.816;2023-06-14T09:11:36;5.10;;;4.45;;
71655;SDS011;59497;48.798;8.816;2023-06-14T09:14:01;4.70;;;4.30;;
71655;SDS011;59497;48.798;8.816;2023-06-14T09:16:26;8.23;;;4.80;;
71655;SDS011;59497;48.798;8.816;2023-06-14T09:18:51;5.00;;;4.10;;
71655;SDS011;59497;48.798;8.816;2023-06-14T09:21:17;5.37;;;4.53;;
71655;SDS011;59497;48.798;8.816;2023-06-14T09:23:45;5.93;;;4.83;;
71655;SDS011;59497;48.798;8.816;2023-06-14T09:26:15;5.25;;;4.75;;
71655;SDS011;59497;48.798;8.816;2023-06-14T09:28:44;5.20;;;4.38;;
71655;SDS011;59497;48.798;8.816;2023-06-14T09:31:19;6.67;;;4.23;;
71655;SDS011;59497;48.798;8.816;2023-06-14T09:33:45;5.53;;;5.00;;
71655;SDS011;59497;48.798;8.816;2023-06-14T09:36:16;5.28;;;4.78;;
71655;SDS011;59497;48.798;8.816;2023-06-14T09:38:43;5.95;;;4.57;;
71655;SDS011;59497;48.798;8.816;2023-06-14T09:41:16;5.50;;;4.90;;
71655;SDS011;59497;48.798;8.816;2023-06-14T09:43:41;6.25;;;4.70;;
71655;SDS011;59497;48.798;8.816;2023-06-14T09:46:06;7.90;;;5.00;;
71655;SDS011;59497;48.798;8.816;2023-06-14T09:48:33;5.40;;;4.50;;
71655;SDS011;59497;48.798;8.816;2023-06-14T09:50:58;5.17;;;4.67;;
71655;SDS011;59497;48.798;8.816;2023-06-14T09:53:24;5.68;;;4.78;;
71655;SDS011;59497;48.798;8.816;2023-06-14T09:55:50;5.40;;;4.30;;
71655;SDS011;59497;48.798;8.816;2023-06-14T09:58:17;5.90;;;4.93;;
71655;SDS011;59497;48.798;8.816;2023-06-14T10:00:45;4.60;;;4.20;;
71655;SDS011;59497;48.798;8.816;2023-06-14T10:03:16;5.53;;;4.77;;
71655;SDS011;59497;48.798;8.816;2023-06-14T10:05:46;7.18;;;4.82;;
71655;SDS011;59497;48.798;8.816;2023-06-14T10:08:13;5.20;;;4.70;;
71655;SDS011;59497;48.798;8.816;2023-06-14T10:10:40;6.63;;;3.80;;
71655;SDS011;59497;48.798;8.816;2023-06-14T10:13:07;5.60;;;4.15;;
71655;SDS011;59497;48.798;8.816;2023-06-14T10:15:35;4.87;;;4.40;;
71655;SDS011;59497;48.798;8.816;2023-06-14T10:18:07;6.63;;;4.25;;
71655;SDS011;59497;48.798;8.816;2023-06-14T10:20:42;6.47;;;3.90;;
71655;SDS011;59497;48.798;8.816;2023-06-14T10:23:17;5.55;;;4.07;;
71655;SDS011;59497;48.798;8.816;2023-06-14T10:25:43;4.05;;;3.58;;
71655;SDS011;59497;48.798;8.816;2023-06-14T10:30:33;4.47;;;3.67;;
71655;SDS011;59497;48.798;8.816;2023-06-14T10:33:05;5.43;;;3.87;;
71655;SDS011;59497;48.798;8.816;2023-06-14T10:35:31;5.07;;;4.27;;
71655;SDS011;59497;48.798;8.816;2023-06-14T10:38:05;5.40;;;4.10;;
71655;SDS011;59497;48.798;8.816;2023-06-14T10:40:31;5.60;;;4.47;;
71655;SDS011;59497;48.798;8.816;2023-06-14T10:42:56;3.93;;;3.53;;
71655;SDS011;59497;48.798;8.816;2023-06-14T10:45:21;5.07;;;4.10;;
71655;SDS011;59497;48.798;8.816;2023-06-14T10:47:46;5.73;;;3.73;;
71655;SDS011;59497;48.798;8.816;2023-06-14T10:50:13;5.38;;;3.40;;
71655;SDS011;59497;48.798;8.816;2023-06-14T10:52:42;6.65;;;4.20;;
71655;SDS011;59497;48.798;8.816;2023-06-14T10:55:09;5.00;;;3.83;;
71655;SDS011;59497;48.798;8.816;2023-06-14T10:57:49;4.43;;;4.00;;
71655;SDS011;59497;48.798;8.816;2023-06-14T11:00:24;6.33;;;3.80;;
71655;SDS011;59497;48.798;8.816;2023-06-14T11:10:51;5.80;;;4.78;;
71655;SDS011;59497;48.798;8.816;2023-06-14T11:13:16;4.27;;;3.80;;
71655;SDS011;59497;48.798;8.816;2023-06-14T11:15:45;6.90;;;4.27;;
71655;SDS011;59497;48.798;8.816;2023-06-14T11:18:12;5.57;;;3.70;;
71655;SDS011;59497;48.798;8.816;2023-06-14T11:20:39;4.57;;;4.18;;
71655;SDS011;59497;48.798;8.816;2023-06-14T11:23:04;4.53;;;3.60;;
71655;SDS011;59497;48.798;8.816;2023-06-14T11:25:30;4.50;;;3.72;;
71655;SDS011;59497;48.798;8.816;2023-06-14T11:27:55;4.50;;;3.87;;
71655;SDS011;59497;48.798;8.816;2023-06-14T11:30:20;5.10;;;4.37;;
71655;SDS011;59497;48.798;8.816;2023-06-14T11:32:49;4.60;;;3.47;;
71655;SDS011;59497;48.798;8.816;2023-06-14T11:35:16;4.15;;;3.72;;
71655;SDS011;59497;48.798;8.816;2023-06-14T11:37:41;4.15;;;3.75;;
71655;SDS011;59497;48.798;8.816;2023-06-14T11:40:07;4.13;;;3.70;;
71655;SDS011;59497;48.798;8.816;2023-06-14T11:42:33;4.38;;;3.97;;
71655;SDS011;59497;48.798;8.816;2023-06-14T11:44:58;3.90;;;3.60;;
71655;SDS011;59497;48.798;8.816;2023-06-14T11:47:23;5.60;;;3.67;;
71655;SDS011;59497;48.798;8.816;2023-06-14T11:49:49;4.83;;;3.87;;
71655;SDS011;59497;48.798;8.816;2023-06-14T11:52:14;4.30;;;3.83;;
71655;SDS011;59497;48.798;8.816;2023-06-14T11:54:40;5.37;;;3.80;;
71655;SDS011;59497;48.798;8.816;2023-06-14T11:57:06;4.10;;;3.70;;
71655;SDS011;59497;48.798;8.816;2023-06-14T11:59:32;4.45;;;3.33;;
71655;SDS011;59497;48.798;8.816;2023-06-14T12:01:57;4.40;;;3.73;;
71655;SDS011;59497;48.798;8.816;2023-06-14T12:04:31;4.13;;;3.73;;
71655;SDS011;59497;48.798;8.816;2023-06-14T12:06:57;4.97;;;4.40;;
71655;SDS011;59497;48.798;8.816;2023-06-14T12:09:22;4.23;;;3.83;;
71655;SDS011;59497;48.798;8.816;2023-06-14T12:11:49;4.57;;;4.17;;
71655;SDS011;59497;48.798;8.816;2023-06-14T12:14:14;4.63;;;4.22;;
71655;SDS011;59497;48.798;8.816;2023-06-14T12:16:39;5.10;;;4.60;;
71655;SDS011;59497;48.798;8.816;2023-06-14T12:19:13;7.80;;;4.80;;
71655;SDS011;59497;48.798;8.816;2023-06-14T12:21:39;4.13;;;3.72;;
71655;SDS011;59497;48.798;8.816;2023-06-14T12:24:05;4.40;;;3.75;;
71655;SDS011;59497;48.798;8.816;2023-06-14T12:26:31;4.85;;;3.80;;
71655;SDS011;59497;48.798;8.816;2023-06-14T12:28:56;4.83;;;3.93;;
71655;SDS011;59497;48.798;8.816;2023-06-14T12:31:22;6.97;;;3.60;;
71655;SDS011;59497;48.798;8.816;2023-06-14T12:33:47;4.50;;;4.03;;
71655;SDS011;59497;48.798;8.816;2023-06-14T12:36:14;4.88;;;4.40;;
71655;SDS011;59497;48.798;8.816;2023-06-14T12:38:40;4.78;;;4.28;;
71655;SDS011;59497;48.798;8.816;2023-06-14T12:41:05;5.47;;;3.70;;
71655;SDS011;59497;48.798;8.816;2023-06-14T12:43:30;4.57;;;4.17;;
71655;SDS011;59497;48.798;8.816;2023-06-14T12:45:56;5.83;;;4.13;;
71655;SDS011;59497;48.798;8.816;2023-06-14T12:48:21;5.43;;;4.90;;
71655;SDS011;59497;48.798;8.816;2023-06-14T12:50:47;4.30;;;3.90;;
71655;SDS011;59497;48.798;8.816;2023-06-14T12:53:12;5.17;;;4.67;;
71655;SDS011;59497;48.798;8.816;2023-06-14T12:55:38;5.40;;;4.43;;
71655;SDS011;59497;48.798;8.816;2023-06-14T12:58:03;4.37;;;3.87;;
71655;SDS011;59497;48.798;8.816;2023-06-14T13:00:28;5.03;;;3.60;;
71655;SDS011;59497;48.798;8.816;2023-06-14T13:02:55;4.10;;;3.70;;
71655;SDS011;59497;48.798;8.816;2023-06-14T13:05:20;4.05;;;3.55;;
71655;SDS011;59497;48.798;8.816;2023-06-14T13:07:45;5.07;;;3.57;;
71655;SDS011;59497;48.798;8.816;2023-06-14T13:10:11;4.40;;;4.00;;
71655;SDS011;59497;48.798;8.816;2023-06-14T13:12:36;4.37;;;3.60;;
71655;SDS011;59497;48.798;8.816;2023-06-14T13:15:01;4.07;;;3.73;;
71655;SDS011;59497;48.798;8.816;2023-06-14T13:17:27;5.07;;;4.50;;
71655;SDS011;59497;48.798;8.816;2023-06-14T13:19:52;4.27;;;3.87;;
71655;SDS011;59497;48.798;8.816;2023-06-14T13:22:17;4.37;;;3.77;;
71655;SDS011;59497;48.798;8.816;2023-06-14T13:24:42;4.80;;;3.47;;
71655;SDS011;59497;48.798;8.816;2023-06-14T13:27:08;6.17;;;4.00;;
71655;SDS011;59497;48.798;8.816;2023-06-14T13:29:33;3.77;;;3.40;;
71655;SDS011;59497;48.798;8.816;2023-06-14T13:32:00;4.70;;;3.67;;
71655;SDS011;59497;48.798;8.816;2023-06-14T13:34:25;6.13;;;4.03;;
71655;SDS011;59497;48.798;8.816;2023-06-14T13:36:51;4.50;;;4.10;;
71655;SDS011;59497;48.798;8.816;2023-06-14T13:39:16;4.87;;;3.70;;
71655;SDS011;59497;48.798;8.816;2023-06-14T13:41:41;4.70;;;4.30;;
71655;SDS011;59497;48.798;8.816;2023-06-14T13:44:06;5.10;;;3.80;;
71655;SDS011;59497;48.798;8.816;2023-06-14T13:46:32;4.60;;;4.27;;
71655;SDS011;59497;48.798;8.816;2023-06-14T13:48:57;4.53;;;4.13;;
71655;SDS011;59497;48.798;8.816;2023-06-14T13:51:26;4.22;;;3.83;;
71655;SDS011;59497;48.798;8.816;2023-06-14T13:53:52;5.10;;;3.77;;
71655;SDS011;59497;48.798;8.816;2023-06-14T13:56:18;4.55;;;3.85;;
71655;SDS011;59497;48.798;8.816;2023-06-14T13:58:44;4.10;;;3.70;;
71655;SDS011;59497;48.798;8.816;2023-06-14T14:01:09;4.65;;;3.60;;
71655;SDS011;59497;48.798;8.816;2023-06-14T14:03:35;4.23;;;3.33;;
71655;SDS011;59497;48.798;8.816;2023-06-14T14:06:01;3.80;;;3.38;;
71655;SDS011;59497;48.798;8.816;2023-06-14T14:08:26;4.37;;;3.80;;
71655;SDS011;59497;48.798;8.816;2023-06-14T14:10:51;4.73;;;3.80;;
71655;SDS011;59497;48.798;8.816;2023-06-14T14:13:17;4.37;;;3.97;;
71655;SDS011;59497;48.798;8.816;2023-06-14T14:15:42;3.80;;;3.40;;
71655;SDS011;59497;48.798;8.816;2023-06-14T14:18:08;4.63;;;4.23;;
71655;SDS011;59497;48.798;8.816;2023-06-14T14:20:33;5.33;;;4.03;;
71655;SDS011;59497;48.798;8.816;2023-06-14T14:22:59;4.43;;;4.03;;
71655;SDS011;59497;48.798;8.816;2023-06-14T14:25:24;4.53;;;4.22;;
71655;SDS011;59497;48.798;8.816;2023-06-14T14:27:49;5.10;;;3.90;;
71655;SDS011;59497;48.798;8.816;2023-06-14T14:30:15;6.17;;;4.20;;
71655;SDS011;59497;48.798;8.816;2023-06-14T14:32:41;6.55;;;3.90;;
71655;SDS011;59497;48.798;8.816;2023-06-14T14:35:07;4.07;;;3.67;;
71655;SDS011;59497;48.798;8.816;2023-06-14T14:37:32;4.07;;;3.77;;
71655;SDS011;59497;48.798;8.816;2023-06-14T14:39:58;4.40;;;4.00;;
71655;SDS011;59497;48.798;8.816;2023-06-14T14:42:23;4.97;;;4.43;;
71655;SDS011;59497;48.798;8.816;2023-06-14T14:44:48;5.20;;;3.93;;
71655;SDS011;59497;48.798;8.816;2023-06-14T14:47:13;5.40;;;4.00;;
71655;SDS011;59497;48.798;8.816;2023-06-14T14:49:48;4.20;;;3.80;;
71655;SDS011;59497;48.798;8.816;2023-06-14T14:52:13;34.13;;;9.05;;
71655;SDS011;59497;48.798;8.816;2023-06-14T14:54:38;13.57;;;6.00;;
71655;SDS011;59497;48.798;8.816;2023-06-14T14:57:04;4.72;;;4.22;;
71655;SDS011;59497;48.798;8.816;2023-06-14T14:59:30;9.67;;;4.67;;